createdAt,value
2023-05-07T00:01:04.255Z,47.20
2023-05-07T00:03:31.109Z,47.90
2023-05-07T00:05:57.888Z,47.40
2023-05-07T00:08:24.693Z,47.30
2023-05-07T00:10:51.696Z,47.40
2023-05-07T00:13:19.793Z,47.40
2023-05-07T00:15:46.503Z,47.50
2023-05-07T00:18:13.281Z,47.50
2023-05-07T00:20:39.969Z,47.50
2023-05-07T00:23:06.607Z,47.50
2023-05-07T00:25:33.282Z,47.50
2023-05-07T00:27:59.928Z,47.40
2023-05-07T00:30:27.878Z,47.20
2023-05-07T00:32:54.594Z,47.40
2023-05-07T00:35:21.446Z,47.20
2023-05-07T00:37:48.133Z,47.20
2023-05-07T00:40:14.798Z,47.30
2023-05-07T00:42:41.494Z,47.20
2023-05-07T00:45:09.017Z,47.40
2023-05-07T00:47:37.414Z,47.30
2023-05-07T00:50:05.083Z,47.40
2023-05-07T00:52:31.760Z,47.10
2023-05-07T00:54:58.678Z,46.90
2023-05-07T00:57:25.701Z,47.00
2023-05-07T00:59:53.096Z,47.00
2023-05-07T01:02:19.898Z,47.10
2023-05-07T01:04:47.940Z,47.00
2023-05-07T01:07:15.279Z,47.10
2023-05-07T01:09:42.076Z,46.80
2023-05-07T01:12:09.484Z,47.00
2023-05-07T01:14:36.382Z,47.00
2023-05-07T01:17:03.130Z,47.10
2023-05-07T01:19:30.845Z,47.20
2023-05-07T01:22:03.350Z,47.30
2023-05-07T01:24:32.450Z,47.40
2023-05-07T01:26:59.133Z,47.40
2023-05-07T01:29:25.804Z,47.10
2023-05-07T01:31:53.645Z,47.00
2023-05-07T01:34:22.476Z,47.00
2023-05-07T01:36:49.436Z,46.90
2023-05-07T01:39:17.139Z,46.80
2023-05-07T01:41:47.453Z,46.70
2023-05-07T01:44:15.451Z,46.90
2023-05-07T01:46:42.245Z,46.60
2023-05-07T01:49:09.516Z,46.50
2023-05-07T01:51:37.083Z,46.60
2023-05-07T01:54:03.956Z,46.50
2023-05-07T01:56:31.378Z,46.20
2023-05-07T01:58:59.365Z,46.40
2023-05-07T02:01:26.374Z,46.70
2023-05-07T02:03:53.170Z,46.80
2023-05-07T02:06:19.971Z,46.60
2023-05-07T02:08:46.882Z,46.60
2023-05-07T02:11:13.592Z,46.60
2023-05-07T02:13:40.239Z,46.40
2023-05-07T02:16:08.529Z,46.40
2023-05-07T02:18:35.242Z,46.50
2023-05-07T02:21:01.869Z,46.30
2023-05-07T02:23:28.526Z,46.30
2023-05-07T02:25:55.188Z,46.30
2023-05-07T02:28:21.855Z,46.30
2023-05-07T02:30:48.509Z,46.30
2023-05-07T02:33:16.499Z,46.30
2023-05-07T02:35:43.294Z,46.40
2023-05-07T02:38:09.914Z,46.40
2023-05-07T02:40:36.553Z,46.20
2023-05-07T02:43:03.223Z,46.30
2023-05-07T02:45:29.939Z,46.20
2023-05-07T02:47:56.736Z,46.10
2023-05-07T02:50:24.821Z,46.10
2023-05-07T02:52:51.619Z,46.30
2023-05-07T02:55:18.453Z,46.40
2023-05-07T02:57:45.131Z,46.30
2023-05-07T03:00:13.711Z,46.40
2023-05-07T03:02:40.364Z,46.40
2023-05-07T03:05:07.832Z,46.60
2023-05-07T03:07:35.946Z,46.10
2023-05-07T03:10:02.821Z,46.90
2023-05-07T03:12:29.591Z,46.80
2023-05-07T03:14:56.277Z,46.90
2023-05-07T03:17:23.134Z,47.10
2023-05-07T03:19:49.761Z,47.00
2023-05-07T03:22:16.475Z,47.10
2023-05-07T03:24:44.469Z,46.90
2023-05-07T03:27:11.162Z,46.80
2023-05-07T03:29:37.843Z,46.60
2023-05-07T03:32:05.088Z,46.70
2023-05-07T03:34:31.748Z,46.90
2023-05-07T03:36:58.411Z,46.70
2023-05-07T03:39:25.132Z,46.90
2023-05-07T03:41:53.543Z,46.90
2023-05-07T03:44:20.171Z,46.90
2023-05-07T03:46:46.914Z,46.90
2023-05-07T03:49:13.602Z,46.80
2023-05-07T03:51:40.262Z,47.10
2023-05-07T03:54:06.923Z,46.90
2023-05-07T03:56:33.562Z,46.90
2023-05-07T03:59:01.700Z,46.90
2023-05-07T04:01:28.451Z,46.90
2023-05-07T04:03:55.231Z,46.70
2023-05-07T04:06:22.056Z,46.60
2023-05-07T04:08:48.751Z,46.50
2023-05-07T04:11:15.421Z,46.60
2023-05-07T04:13:42.208Z,46.70
2023-05-07T04:16:10.276Z,46.50
2023-05-07T04:18:37.020Z,46.70
2023-05-07T04:21:03.805Z,46.30
2023-05-07T04:23:30.492Z,46.70
2023-05-07T04:25:57.177Z,46.90
2023-05-07T04:28:24.044Z,46.80
2023-05-07T04:30:50.722Z,46.30
2023-05-07T04:33:18.688Z,46.90
2023-05-07T04:35:45.382Z,47.20
2023-05-07T04:38:12.050Z,46.90
2023-05-07T04:40:38.894Z,47.30
2023-05-07T04:43:05.677Z,47.10
2023-05-07T04:45:32.772Z,46.90
2023-05-07T04:47:59.495Z,46.80
2023-05-07T04:50:27.470Z,46.90
2023-05-07T04:52:54.196Z,46.60
2023-05-07T04:55:20.858Z,46.40
2023-05-07T04:57:47.493Z,46.30
2023-05-07T05:00:14.602Z,46.90
2023-05-07T05:02:41.428Z,46.60
2023-05-07T05:05:09.177Z,47.20
2023-05-07T05:07:37.214Z,47.20
2023-05-07T05:10:06.167Z,47.10
2023-05-07T05:12:32.846Z,47.10
2023-05-07T05:14:59.486Z,47.10
2023-05-07T05:17:26.160Z,47.20
2023-05-07T05:19:52.860Z,47.00
2023-05-07T05:22:19.501Z,46.90
2023-05-07T05:24:47.517Z,46.90
2023-05-07T05:27:14.258Z,46.80
2023-05-07T05:29:41.247Z,46.70
2023-05-07T05:32:07.901Z,46.60
2023-05-07T05:34:34.519Z,46.60
2023-05-07T05:37:01.242Z,47.00
2023-05-07T05:39:27.874Z,47.30
2023-05-07T05:41:55.903Z,46.80
2023-05-07T05:44:22.609Z,46.60
2023-05-07T05:46:49.421Z,46.50
2023-05-07T05:49:16.183Z,46.40
2023-05-07T05:51:42.862Z,46.50
2023-05-07T05:54:09.567Z,46.30
2023-05-07T05:56:37.384Z,46.50
2023-05-07T05:59:05.432Z,46.60
2023-05-07T06:01:32.090Z,46.80
2023-05-07T06:03:58.716Z,46.40
2023-05-07T06:06:25.478Z,46.10
2023-05-07T06:08:52.154Z,46.30
2023-05-07T06:11:18.799Z,46.20
2023-05-07T06:13:45.439Z,46.20
2023-05-07T06:16:13.585Z,46.40
2023-05-07T06:18:40.362Z,47.00
2023-05-07T06:21:07.044Z,46.70
2023-05-07T06:23:33.737Z,46.80
2023-05-07T06:26:00.489Z,46.50
2023-05-07T06:28:27.137Z,46.70
2023-05-07T06:30:53.763Z,46.80
2023-05-07T06:33:21.815Z,47.00
2023-05-07T06:35:48.549Z,46.90
2023-05-07T06:38:15.267Z,47.00
2023-05-07T06:40:41.990Z,47.10
2023-05-07T06:43:08.747Z,47.20
2023-05-07T06:45:35.372Z,46.50
2023-05-07T06:48:02.206Z,47.00
2023-05-07T06:50:30.318Z,47.30
2023-05-07T06:52:57.003Z,47.30
2023-05-07T06:55:23.820Z,47.50
2023-05-07T06:57:50.472Z,47.20
2023-05-07T07:00:17.883Z,47.10
2023-05-07T07:02:44.590Z,47.40
2023-05-07T07:05:11.611Z,47.20
2023-05-07T07:07:39.718Z,47.20
2023-05-07T07:10:07.626Z,46.70
2023-05-07T07:12:34.345Z,47.00
2023-05-07T07:15:01.112Z,47.10
2023-05-07T07:17:27.898Z,47.00
2023-05-07T07:19:54.732Z,46.90
2023-05-07T07:22:21.442Z,46.90
2023-05-07T07:24:49.780Z,47.20
2023-05-07T07:27:16.592Z,47.20
2023-05-07T07:29:43.335Z,47.00
2023-05-07T07:32:10.079Z,46.90
2023-05-07T07:34:36.788Z,47.20
2023-05-07T07:37:03.530Z,47.10
2023-05-07T07:39:30.189Z,47.20
2023-05-07T07:41:58.175Z,47.00
2023-05-07T07:44:24.901Z,47.10
2023-05-07T07:46:51.752Z,47.30
2023-05-07T07:49:19.052Z,47.20
2023-05-07T07:51:45.731Z,46.90
2023-05-07T07:54:12.511Z,47.30
2023-05-07T07:56:39.166Z,47.50
2023-05-07T07:59:07.204Z,47.50
2023-05-07T08:01:33.873Z,47.30
2023-05-07T08:04:01.584Z,47.00
2023-05-07T08:06:28.318Z,47.30
2023-05-07T08:08:54.978Z,47.60
2023-05-07T08:11:21.933Z,47.70
2023-05-07T08:13:48.857Z,47.50
2023-05-07T08:16:16.974Z,47.20
2023-05-07T08:18:43.653Z,47.00
2023-05-07T08:21:10.397Z,47.00
2023-05-07T08:23:38.144Z,47.00
2023-05-07T08:26:04.935Z,46.90
2023-05-07T08:28:31.635Z,46.70
2023-05-07T08:30:58.332Z,46.70
2023-05-07T08:33:26.420Z,46.70
2023-05-07T08:35:53.115Z,46.80
2023-05-07T08:38:21.084Z,46.70
2023-05-07T08:40:48.205Z,46.70
2023-05-07T08:43:15.658Z,46.60
2023-05-07T08:45:42.614Z,46.70
2023-05-07T08:48:15.029Z,46.30
2023-05-07T08:50:43.401Z,46.50
2023-05-07T08:53:10.208Z,46.40
2023-05-07T08:55:36.993Z,46.20
2023-05-07T08:58:04.406Z,46.60
2023-05-07T09:00:31.073Z,46.50
2023-05-07T09:02:57.899Z,46.30
2023-05-07T09:05:24.596Z,46.50
2023-05-07T09:07:58.295Z,46.10
2023-05-07T09:10:26.532Z,46.60
2023-05-07T09:12:53.309Z,46.80
2023-05-07T09:15:20.411Z,46.20
2023-05-07T09:17:47.154Z,46.10
2023-05-07T09:20:14.302Z,46.60
2023-05-07T09:22:40.973Z,46.60
2023-05-07T09:25:10.910Z,46.10
2023-05-07T09:27:38.275Z,46.40
2023-05-07T09:30:05.777Z,46.40
2023-05-07T09:32:35.617Z,46.40
2023-05-07T09:35:02.485Z,46.30
2023-05-07T09:37:32.450Z,46.20
2023-05-07T09:39:59.588Z,46.50
2023-05-07T09:42:28.409Z,46.20
2023-05-07T09:44:55.422Z,46.40
2023-05-07T09:47:25.374Z,46.30
2023-05-07T09:49:57.385Z,46.70
2023-05-07T09:52:25.225Z,47.20
2023-05-07T09:54:53.642Z,46.30
2023-05-07T09:57:21.132Z,46.40
2023-05-07T09:59:52.451Z,46.40
2023-05-07T10:02:21.611Z,46.40
2023-05-07T10:04:50.039Z,46.40
2023-05-07T10:07:17.643Z,46.30
2023-05-07T10:09:45.592Z,46.20
2023-05-07T10:12:12.444Z,46.70
2023-05-07T10:14:39.521Z,46.00
2023-05-07T10:17:09.039Z,46.30
2023-05-07T10:19:38.680Z,46.10
2023-05-07T10:22:06.963Z,45.80
2023-05-07T10:24:34.910Z,45.80
2023-05-07T10:27:05.012Z,45.90
2023-05-07T10:29:38.109Z,45.60
2023-05-07T10:32:36.637Z,45.70
2023-05-07T10:35:07.430Z,45.80
2023-05-07T10:37:35.022Z,45.90
2023-05-07T10:40:02.296Z,45.60
2023-05-07T10:42:29.140Z,45.50
2023-05-07T10:44:55.895Z,45.50
2023-05-07T10:47:23.914Z,45.50
2023-05-07T10:50:21.456Z,45.60
2023-05-07T10:53:25.063Z,45.50
2023-05-07T10:55:52.815Z,45.50
2023-05-07T11:00:58.668Z,45.40
2023-05-07T11:03:27.286Z,45.40
2023-05-07T11:06:13.535Z,45.40
2023-05-07T11:08:57.619Z,45.30
2023-05-07T11:11:47.947Z,45.40
2023-05-07T11:14:15.211Z,45.30
2023-05-07T11:16:44.200Z,45.10
2023-05-07T11:19:11.017Z,45.20
2023-05-07T11:21:39.511Z,45.30
2023-05-07T11:24:08.575Z,44.90
2023-05-07T11:26:46.651Z,45.10
2023-05-07T11:29:15.188Z,45.00
2023-05-07T11:31:42.028Z,44.90
2023-05-07T11:34:09.578Z,44.90
2023-05-07T11:36:42.038Z,45.00
2023-05-07T11:39:28.737Z,44.70
2023-05-07T11:41:55.689Z,44.90
2023-05-07T11:44:22.450Z,44.90
2023-05-07T11:46:49.638Z,44.70
2023-05-07T11:49:16.345Z,44.70
2023-05-07T11:51:43.200Z,44.50
2023-05-07T11:54:10.454Z,44.60
2023-05-07T11:56:38.789Z,44.80
2023-05-07T11:59:05.762Z,44.90
2023-05-07T12:01:32.460Z,44.80
2023-05-07T12:03:59.195Z,44.90
2023-05-07T12:06:26.061Z,44.90
2023-05-07T12:08:54.064Z,45.00
2023-05-07T12:11:24.922Z,44.70
2023-05-07T12:13:58.729Z,45.00
2023-05-07T12:16:26.278Z,45.00
2023-05-07T12:18:54.564Z,44.80
2023-05-07T12:21:21.402Z,44.70
2023-05-07T12:23:48.726Z,44.70
2023-05-07T12:26:15.449Z,44.50
2023-05-07T12:28:42.325Z,44.70
2023-05-07T12:31:10.415Z,44.70
2023-05-07T12:33:37.339Z,44.70
2023-05-07T12:36:06.813Z,45.30
2023-05-07T12:38:37.798Z,44.60
2023-05-07T12:41:05.126Z,44.70
2023-05-07T12:43:31.785Z,44.60
2023-05-07T12:46:01.894Z,44.60
2023-05-07T12:48:30.176Z,44.50
2023-05-07T12:50:57.758Z,44.50
2023-05-07T12:53:27.249Z,44.60
2023-05-07T12:55:55.432Z,44.40
2023-05-07T12:58:26.203Z,44.80
2023-05-07T13:00:53.386Z,44.60
2023-05-07T13:03:24.613Z,44.50
2023-05-07T13:05:53.345Z,44.20
2023-05-07T13:08:27.576Z,44.10
2023-05-07T13:10:54.307Z,43.70
2023-05-07T13:13:21.387Z,43.90
2023-05-07T13:15:48.543Z,43.80
2023-05-07T13:18:15.708Z,44.00
2023-05-07T13:20:42.733Z,44.10
2023-05-07T13:23:11.099Z,44.10
2023-05-07T13:25:39.315Z,44.20
2023-05-07T13:28:10.962Z,44.10
2023-05-07T13:30:38.411Z,44.20
2023-05-07T13:33:05.218Z,44.20
2023-05-07T13:35:32.019Z,44.20
2023-05-07T13:37:58.700Z,44.30
2023-05-07T13:40:26.823Z,44.30
2023-05-07T13:42:54.612Z,44.50
2023-05-07T13:45:21.389Z,44.30
2023-05-07T13:47:48.215Z,44.50
2023-05-07T13:50:14.970Z,44.20
2023-05-07T13:52:43.038Z,44.30
2023-05-07T13:55:11.131Z,44.30
2023-05-07T13:57:39.554Z,44.30
2023-05-07T14:00:10.836Z,44.40
2023-05-07T14:02:37.892Z,44.00
2023-05-07T14:05:05.572Z,44.20
2023-05-07T14:07:32.315Z,43.80
2023-05-07T14:09:59.194Z,43.30
2023-05-07T14:12:25.998Z,43.70
2023-05-07T14:14:54.920Z,43.50
2023-05-07T14:17:21.790Z,43.90
2023-05-07T14:19:48.604Z,43.60
2023-05-07T14:22:15.826Z,43.70
2023-05-07T14:24:42.801Z,43.70
2023-05-07T14:27:09.689Z,43.70
2023-05-07T14:29:36.778Z,43.20
2023-05-07T14:32:05.612Z,43.70
2023-05-07T14:34:33.021Z,43.70
2023-05-07T14:37:01.530Z,43.80
2023-05-07T14:39:29.057Z,44.00
2023-05-07T14:41:56.234Z,43.90
2023-05-07T14:44:23.392Z,44.00
2023-05-07T14:46:51.264Z,44.10
2023-05-07T14:49:20.289Z,43.90
2023-05-07T14:51:48.241Z,44.10
2023-05-07T14:54:15.419Z,44.00
2023-05-07T14:56:42.975Z,43.80
2023-05-07T14:59:10.141Z,43.90
2023-05-07T15:01:37.739Z,43.90
2023-05-07T15:04:05.229Z,43.80
2023-05-07T15:06:33.525Z,43.90
2023-05-07T15:09:00.389Z,43.90
2023-05-07T15:11:27.106Z,44.00
2023-05-07T15:13:54.174Z,43.40
2023-05-07T15:16:21.748Z,43.80
2023-05-07T15:18:49.955Z,44.10
2023-05-07T15:21:17.125Z,44.50
2023-05-07T15:23:45.662Z,44.40
2023-05-07T15:26:13.370Z,44.30
2023-05-07T15:28:41.278Z,44.20
2023-05-07T15:31:10.370Z,44.50
2023-05-07T15:33:42.966Z,44.20
2023-05-07T15:36:10.231Z,44.10
2023-05-07T15:38:39.412Z,44.00
2023-05-07T15:41:10.523Z,43.90
2023-05-07T15:43:45.907Z,43.80
2023-05-07T15:46:12.766Z,43.30
2023-05-07T15:48:39.593Z,43.20
2023-05-07T15:51:06.398Z,43.90
2023-05-07T15:53:33.115Z,43.40
2023-05-07T15:55:59.918Z,43.10
2023-05-07T15:58:28.610Z,42.70
2023-05-07T16:00:55.662Z,42.70
2023-05-07T16:03:23.163Z,42.70
2023-05-07T16:05:50.103Z,42.50
2023-05-07T16:08:17.023Z,42.30
2023-05-07T16:10:43.824Z,42.30
2023-05-07T16:13:10.584Z,42.10
2023-05-07T16:15:38.706Z,41.80
2023-05-07T16:18:05.870Z,41.70
2023-05-07T16:20:32.761Z,41.60
2023-05-07T16:22:59.628Z,41.90
2023-05-07T16:25:29.242Z,41.90
2023-05-07T16:27:56.041Z,41.80
2023-05-07T16:30:22.983Z,41.50
2023-05-07T16:32:51.143Z,41.90
2023-05-07T16:35:18.116Z,42.20
2023-05-07T16:37:44.839Z,42.10
2023-05-07T16:40:12.423Z,41.80
2023-05-07T16:42:39.209Z,42.00
2023-05-07T16:45:10.133Z,42.00
2023-05-07T16:47:37.346Z,41.90
2023-05-07T16:50:06.492Z,41.90
2023-05-07T16:52:33.312Z,41.70
2023-05-07T16:55:05.986Z,41.00
2023-05-07T16:57:33.010Z,41.70
2023-05-07T17:00:00.677Z,41.80
2023-05-07T17:02:28.091Z,41.70
2023-05-07T17:04:55.072Z,41.50
2023-05-07T17:07:25.405Z,42.10
2023-05-07T17:09:52.441Z,40.90
2023-05-07T17:12:19.270Z,41.10
2023-05-07T17:14:46.280Z,40.80
2023-05-07T17:17:13.125Z,41.70
2023-05-07T17:19:42.681Z,41.10
2023-05-07T17:22:09.618Z,40.90
2023-05-07T17:24:37.723Z,41.00
2023-05-07T17:27:05.042Z,40.50
2023-05-07T17:29:31.742Z,40.40
2023-05-07T17:31:58.586Z,40.90
2023-05-07T17:34:25.413Z,40.70
2023-05-07T17:39:32.834Z,40.70
2023-05-07T17:42:00.969Z,40.70
2023-05-07T17:44:27.997Z,40.80
2023-05-07T17:46:54.904Z,40.80
2023-05-07T17:49:21.682Z,40.90
2023-05-07T17:51:54.508Z,40.60
2023-05-07T17:54:22.104Z,40.70
2023-05-07T17:56:48.846Z,41.00
2023-05-07T17:59:17.261Z,40.90
2023-05-07T18:01:44.410Z,40.90
2023-05-07T18:04:11.328Z,41.20
2023-05-07T18:06:38.134Z,41.20
2023-05-07T18:09:05.247Z,41.30
2023-05-07T18:11:32.054Z,41.40
2023-05-07T18:13:59.029Z,41.20
2023-05-07T18:16:27.661Z,41.30
2023-05-07T18:18:55.032Z,41.50
2023-05-07T18:21:21.898Z,41.50
2023-05-07T18:23:49.375Z,41.50
2023-05-07T18:26:16.693Z,41.60
2023-05-07T18:28:43.526Z,41.60
2023-05-07T18:31:10.552Z,41.70
2023-05-07T18:33:38.765Z,41.60
2023-05-07T18:36:06.335Z,41.60
2023-05-07T18:38:33.100Z,41.60
2023-05-07T18:41:03.367Z,41.70
2023-05-07T18:43:30.086Z,41.60
2023-05-07T18:45:56.834Z,41.70
2023-05-07T18:48:23.566Z,41.70
2023-05-07T18:50:51.799Z,41.80
2023-05-07T18:53:18.473Z,41.80
2023-05-07T18:55:49.786Z,41.80
2023-05-07T18:58:16.559Z,41.90
2023-05-07T19:00:43.314Z,41.90
2023-05-07T19:03:10.199Z,41.90
2023-05-07T19:05:36.928Z,42.00
2023-05-07T19:08:05.202Z,42.00
2023-05-07T19:10:31.886Z,42.00
2023-05-07T19:12:58.689Z,42.20
2023-05-07T19:15:25.628Z,42.00
2023-05-07T19:17:52.359Z,42.10
2023-05-07T19:20:19.125Z,42.30
2023-05-07T19:22:45.880Z,42.20
2023-05-07T19:25:14.565Z,42.30
2023-05-07T19:27:41.371Z,42.30
2023-05-07T19:30:09.445Z,42.40
2023-05-07T19:32:36.276Z,42.30
2023-05-07T19:35:03.187Z,42.40
2023-05-07T19:37:29.895Z,42.60
2023-05-07T19:39:56.575Z,42.50
2023-05-07T19:42:24.673Z,42.60
2023-05-07T19:44:51.329Z,42.70
2023-05-07T19:47:18.683Z,42.80
2023-05-07T19:49:45.392Z,42.70
2023-05-07T19:52:12.104Z,42.70
2023-05-07T19:54:38.776Z,42.90
2023-05-07T19:57:05.420Z,42.80
2023-05-07T19:59:33.409Z,42.90
2023-05-07T20:02:00.257Z,43.00
2023-05-07T20:04:26.953Z,43.00
2023-05-07T20:06:53.698Z,43.00
2023-05-07T20:09:20.332Z,43.10
2023-05-07T20:11:47.016Z,43.10
2023-05-07T20:14:14.565Z,43.10
2023-05-07T20:16:43.225Z,43.10
2023-05-07T20:19:09.949Z,43.10
2023-05-07T20:21:36.644Z,43.10
2023-05-07T20:24:03.548Z,43.20
2023-05-07T20:26:30.169Z,43.20
2023-05-07T20:28:56.833Z,43.30
2023-05-07T20:31:23.636Z,43.20
2023-05-07T20:33:51.714Z,43.20
2023-05-07T20:36:18.487Z,43.20
2023-05-07T20:38:45.236Z,43.30
2023-05-07T20:41:12.208Z,43.30
2023-05-07T20:43:38.874Z,43.30
2023-05-07T20:46:06.339Z,43.40
2023-05-07T20:48:33.529Z,43.30
2023-05-07T20:51:02.305Z,43.50
2023-05-07T20:53:29.696Z,43.40
2023-05-07T20:55:56.779Z,43.40
2023-05-07T20:58:23.926Z,43.50
2023-05-07T21:00:50.761Z,43.50
2023-05-07T21:03:17.558Z,44.20
2023-05-07T21:05:50.171Z,43.50
2023-05-07T21:08:18.162Z,43.50
2023-05-07T21:10:44.845Z,43.60
2023-05-07T21:13:11.535Z,43.50
2023-05-07T21:15:38.378Z,43.60
2023-05-07T21:18:05.410Z,43.60
2023-05-07T21:20:32.099Z,43.60
2023-05-07T21:22:58.776Z,43.70
2023-05-07T21:25:26.827Z,43.80
2023-05-07T21:27:53.603Z,43.80
2023-05-07T21:30:20.347Z,43.60
2023-05-07T21:32:47.492Z,43.70
2023-05-07T21:35:15.835Z,43.80
2023-05-07T21:37:42.560Z,43.70
2023-05-07T21:40:09.927Z,43.70
2023-05-07T21:42:37.977Z,43.60
2023-05-07T21:45:05.566Z,43.70
2023-05-07T21:47:32.301Z,43.70
2023-05-07T21:50:00.507Z,43.50
2023-05-07T21:52:27.135Z,43.70
2023-05-07T21:54:53.968Z,43.60
2023-05-07T21:57:20.644Z,43.80
2023-05-07T21:59:48.722Z,43.70
2023-05-07T22:02:15.508Z,43.70
2023-05-07T22:04:42.223Z,43.70
2023-05-07T22:07:08.949Z,43.60
2023-05-07T22:09:35.625Z,43.70
2023-05-07T22:12:02.314Z,43.50
2023-05-07T22:14:28.947Z,43.70
2023-05-07T22:16:57.009Z,43.50
2023-05-07T22:19:23.721Z,43.70
2023-05-07T22:21:50.380Z,43.70
2023-05-07T22:24:17.102Z,43.60
2023-05-07T22:26:43.728Z,43.60
2023-05-07T22:29:10.543Z,43.70
2023-05-07T22:31:37.302Z,43.60
2023-05-07T22:34:05.337Z,44.20
2023-05-07T22:36:32.051Z,43.70
2023-05-07T22:38:58.789Z,43.60
2023-05-07T22:41:25.543Z,43.70
2023-05-07T22:43:52.178Z,43.80
2023-05-07T22:46:18.960Z,43.70
2023-05-07T22:48:45.695Z,43.70
2023-05-07T22:51:14.273Z,43.70
2023-05-07T22:53:41.080Z,43.80
2023-05-07T22:56:08.744Z,43.60
2023-05-07T22:58:35.548Z,44.30
2023-05-07T23:01:02.401Z,43.60
2023-05-07T23:03:29.413Z,43.40
2023-05-07T23:05:56.150Z,43.60
2023-05-07T23:08:24.150Z,43.60
2023-05-07T23:10:50.864Z,43.80
2023-05-07T23:13:17.781Z,43.80
2023-05-07T23:15:44.495Z,43.70
2023-05-07T23:18:11.440Z,43.50
2023-05-07T23:20:38.286Z,43.60
2023-05-07T23:23:04.937Z,43.80
2023-05-07T23:25:33.094Z,43.70
2023-05-07T23:27:59.761Z,43.80
2023-05-07T23:30:26.443Z,43.70
2023-05-07T23:32:53.400Z,43.70
2023-05-07T23:35:20.980Z,43.80
2023-05-07T23:37:47.640Z,43.80
2023-05-07T23:40:14.409Z,43.70
2023-05-07T23:42:42.526Z,43.80
2023-05-07T23:45:09.983Z,43.80
2023-05-07T23:47:36.635Z,43.70
2023-05-07T23:50:03.553Z,43.80
2023-05-07T23:52:30.220Z,43.80
2023-05-07T23:54:56.881Z,43.90
2023-05-07T23:57:23.613Z,44.00
2023-05-07T23:59:51.587Z,43.90
